メインページ
METAR-TAF:

METAR-TAF

空港 :

カラマズー / バトルクリーク, ミシガン州, アメリカ合衆国

緯度: 42-13-45N, 経度: 085-32-47W, 海抜: 266m

現時点の気象観測

当レポートは29分前の18:53(UTC)に作成
南西の風 11kt、最大22ktの突風を伴う
気温 33°C
湿度 63%
気圧 1011 hPa
視程: 16.1km
高度2600ftの千切れ雲あり

METAR: KAZO 191853Z 22011G22KT 10SM BKN026 33/25 A2986 RMK AO2 SLP102 T03280250

時間: 15:22 (19:22 UTC)

予報

当レポートは1時間42分前の17:40(UTC)に作成
予報は19日の 18時(UTC)から 20日の 18時(UTC)まで有効
南西の風 10kt、最大18ktの突風を伴う
視程: 10km
高度2500ftの千切れ雲あり
19日の 2100時(UTC)から
南/南西の風 7kt
視程: 10km
高度8000ftの雲は散在している
20日の 1700時(UTC)から
西/南西の風 12kt、最大20ktの突風を伴う
視程: 10km
高度10000ftの雲は散在している

TAF: KAZO 191740Z 1918/2018 23010G18KT P6SM BKN025 FM192100 21007KT P6SM SCT080 FM201700 24012G20KT P6SM SCT100

4,000以上の空港の気象観測と天気予報(METAR報とTAF報)

利用可能な観測所は地図上に黄色い丸と赤い丸で示す。

丸の上にカーソルを重ねると観測所名を参照できる。

次にクリックすると気象観測と天気予報を参照できる。

マップの切り替え:黒色「×」印の緑ボタンをクリックして拡大、「-」印の緑ボタンをクリックして縮小、緑色の三角印をクリックして隣りの地図に切り替え


METAR-TAF: